Time;durP1;ratioP1;P1;durP2;ratioP2;P2;SDS_P1;SDS_P2;PMS_P1;PMS_P2;Temp;Humidity;BMP_temperature;BMP_pressure;BME280_temperature;BME280_humidity;BME280_pressure;Samples;Min_cycle;Max_cycle;Signal;HPM_P1;HPM_P2
2023/08/29 00:00:27;;;;;;;2.23;1.70;;;12.10;99.90;;;;;;8320922;28;20194;-65
2023/08/29 00:04:27;;;;;;;2.90;1.80;;;12.20;99.90;;;;;;8323731;28;20210;-62
2023/08/29 00:08:28;;;;;;;2.50;2.27;;;12.20;99.90;;;;;;8323029;28;20266;-63
2023/08/29 00:12:31;;;;;;;2.33;2.10;;;12.20;99.90;;;;;;8319256;28;20233;-68
2023/08/29 00:16:32;;;;;;;3.73;2.10;;;12.20;99.90;;;;;;8319932;28;20177;-69
2023/08/29 00:20:33;;;;;;;2.33;1.70;;;12.20;99.90;;;;;;8318516;28;20762;-67
2023/08/29 00:24:34;;;;;;;2.43;2.00;;;12.20;99.90;;;;;;8304091;28;20214;-68
2023/08/29 00:28:34;;;;;;;2.33;1.90;;;12.30;99.90;;;;;;8326210;28;20181;-67
2023/08/29 00:32:35;;;;;;;2.03;1.63;;;12.30;99.90;;;;;;8323210;28;20524;-65
2023/08/29 00:36:36;;;;;;;2.20;1.87;;;12.40;99.90;;;;;;8302184;28;20192;-66
2023/08/29 00:40:37;;;;;;;2.57;1.97;;;12.40;99.90;;;;;;8323961;28;20189;-68
2023/08/29 00:44:38;;;;;;;2.60;2.13;;;12.50;99.90;;;;;;8321855;28;20541;-67
2023/08/29 00:48:39;;;;;;;3.27;2.27;;;12.40;99.90;;;;;;8321736;28;20182;-66
2023/08/29 00:52:40;;;;;;;2.10;1.90;;;12.30;99.90;;;;;;8321113;28;20178;-68
2023/08/29 00:56:41;;;;;;;2.20;2.00;;;12.30;99.90;;;;;;8306329;28;20203;-68
2023/08/29 01:00:42;;;;;;;3.83;2.20;;;12.20;99.90;;;;;;8320841;28;20229;-68
2023/08/29 01:04:43;;;;;;;2.23;2.03;;;12.20;99.90;;;;;;8320520;28;20206;-67
2023/08/29 01:08:45;;;;;;;1.93;1.73;;;12.20;99.90;;;;;;8320756;28;20220;-66
2023/08/29 01:12:59;;;;;;;3.00;2.40;;;12.20;99.90;;;;;;8313831;28;20269;-68
2023/08/29 01:17:12;;;;;;;2.93;1.90;;;12.20;99.90;;;;;;8327131;28;20229;-66
2023/08/29 01:21:34;;;;;;;2.53;1.90;;;12.20;99.90;;;;;;8326985;28;20189;-68
2023/08/29 01:25:46;;;;;;;3.00;1.73;;;12.30;99.90;;;;;;8307516;28;20359;-68
2023/08/29 01:29:47;;;;;;;1.50;1.40;;;12.30;99.90;;;;;;8308445;28;20285;-64
2023/08/29 01:33:49;;;;;;;1.97;1.50;;;12.30;99.90;;;;;;8329483;28;20186;-68
2023/08/29 01:37:50;;;;;;;2.00;1.77;;;12.30;99.90;;;;;;8326764;28;20186;-68
2023/08/29 01:41:51;;;;;;;2.33;1.60;;;12.30;99.90;;;;;;8327679;28;20206;-65
2023/08/29 01:45:52;;;;;;;3.07;2.07;;;12.20;99.90;;;;;;8315561;28;20213;-65
2023/08/29 01:49:53;;;;;;;2.27;2.07;;;12.20;99.90;;;;;;8313209;28;20182;-65
2023/08/29 01:53:57;;;;;;;2.37;2.03;;;12.20;99.90;;;;;;8325527;28;20239;-65
2023/08/29 01:57:59;;;;;;;2.80;2.30;;;12.10;99.90;;;;;;8309864;28;20186;-66
2023/08/29 02:02:01;;;;;;;2.47;2.17;;;12.10;99.90;;;;;;8325154;28;20246;-68
2023/08/29 02:06:02;;;;;;;3.23;2.33;;;12.10;99.90;;;;;;8338359;28;20214;-65
2023/08/29 02:10:03;;;;;;;2.63;2.40;;;12.00;99.90;;;;;;8328860;28;20225;-65
2023/08/29 02:14:04;;;;;;;2.80;2.60;;;12.00;99.90;;;;;;8326538;28;20213;-64
2023/08/29 02:18:05;;;;;;;3.13;2.93;;;12.00;99.90;;;;;;8321445;28;20190;-64
2023/08/29 02:22:05;;;;;;;2.07;1.87;;;12.00;99.90;;;;;;8309686;28;20189;-70
2023/08/29 02:26:06;;;;;;;2.87;2.43;;;12.00;99.90;;;;;;8326108;28;20217;-69
2023/08/29 02:30:07;;;;;;;2.43;2.23;;;12.00;99.90;;;;;;8312641;28;20216;-68
2023/08/29 02:34:08;;;;;;;2.70;2.17;;;12.00;99.90;;;;;;8305457;28;20432;-72
2023/08/29 02:38:09;;;;;;;2.27;2.07;;;12.10;99.90;;;;;;8307569;28;20190;-67
2023/08/29 02:42:10;;;;;;;2.27;2.17;;;12.10;99.90;;;;;;8307435;28;20188;-70
2023/08/29 02:46:11;;;;;;;2.40;2.20;;;12.10;99.90;;;;;;8323485;28;20213;-70
2023/08/29 02:50:12;;;;;;;4.40;2.50;;;12.20;99.90;;;;;;8325729;28;20205;-69
2023/08/29 02:54:13;;;;;;;2.40;2.20;;;12.20;99.90;;;;;;8307180;28;20277;-70
2023/08/29 02:58:13;;;;;;;2.23;2.03;;;12.30;99.90;;;;;;8308760;28;20184;-70
2023/08/29 03:02:14;;;;;;;3.17;2.37;;;12.40;99.90;;;;;;8326134;28;20194;-69
2023/08/29 03:06:15;;;;;;;3.97;2.43;;;12.30;99.90;;;;;;8308238;28;20194;-70
2023/08/29 03:10:17;;;;;;;3.07;2.43;;;12.40;99.90;;;;;;8306418;28;20234;-72
2023/08/29 03:14:18;;;;;;;2.60;2.40;;;12.40;99.90;;;;;;8306169;28;20194;-71
2023/08/29 03:18:18;;;;;;;2.80;2.60;;;12.40;99.90;;;;;;8305338;28;20605;-66
2023/08/29 03:22:19;;;;;;;3.37;3.07;;;12.40;99.90;;;;;;8321519;28;20178;-68
2023/08/29 03:26:20;;;;;;;3.57;3.27;;;12.40;99.90;;;;;;8304929;28;20540;-69
2023/08/29 03:30:20;;;;;;;4.30;3.07;;;12.40;99.90;;;;;;8306562;28;21237;-70
2023/08/29 03:34:21;;;;;;;4.53;3.90;;;12.40;99.90;;;;;;8321152;28;20263;-69
2023/08/29 03:38:22;;;;;;;3.53;3.23;;;12.50;99.90;;;;;;8306630;28;20269;-68
2023/08/29 03:42:23;;;;;;;3.33;3.03;;;12.50;99.90;;;;;;8310133;28;20186;-65
2023/08/29 03:46:23;;;;;;;3.87;3.33;;;12.50;99.90;;;;;;8320309;28;20301;-62
2023/08/29 03:50:25;;;;;;;3.10;2.80;;;12.50;99.90;;;;;;8307322;28;20190;-64
2023/08/29 03:54:25;;;;;;;2.80;2.50;;;12.50;99.90;;;;;;8307559;28;20611;-62
2023/08/29 03:58:29;;;;;;;3.70;2.60;;;12.50;99.90;;;;;;8324951;28;20190;-63
2023/08/29 04:02:30;;;;;;;2.73;2.53;;;12.50;99.90;;;;;;8305421;28;20205;-62
2023/08/29 04:06:34;;;;;;;3.10;2.80;;;12.50;99.90;;;;;;8310843;28;20215;-62
2023/08/29 04:10:42;;;;;;;4.13;3.07;;;12.50;99.90;;;;;;8305952;28;20299;-65
2023/08/29 04:14:42;;;;;;;2.77;2.57;;;12.50;99.90;;;;;;8319072;28;20190;-64
2023/08/29 04:18:43;;;;;;;2.80;2.50;;;12.50;99.90;;;;;;8307125;28;20186;-64
2023/08/29 04:22:45;;;;;;;2.77;2.57;;;12.50;99.90;;;;;;8321710;28;20189;-64
2023/08/29 04:26:46;;;;;;;2.80;2.60;;;12.50;99.90;;;;;;8305251;28;20205;-64
2023/08/29 04:30:47;;;;;;;3.67;2.43;;;12.50;99.90;;;;;;8305596;28;20202;-63
2023/08/29 04:34:48;;;;;;;2.73;2.53;;;12.50;99.90;;;;;;8322424;28;20281;-62
2023/08/29 04:38:49;;;;;;;2.80;2.57;;;12.50;99.90;;;;;;8320848;28;20186;-65
2023/08/29 04:42:53;;;;;;;3.40;2.97;;;12.50;99.90;;;;;;8305717;28;20554;-62
2023/08/29 04:46:54;;;;;;;3.10;2.60;;;12.50;99.90;;;;;;8309221;28;20216;-63
2023/08/29 04:50:55;;;;;;;3.13;2.83;;;12.50;99.90;;;;;;8328784;28;20193;-63
2023/08/29 04:54:56;;;;;;;4.50;2.80;;;12.50;99.90;;;;;;8328915;28;20594;-65
2023/08/29 04:58:57;;;;;;;2.37;2.10;;;12.50;99.90;;;;;;8326300;28;20195;-62
2023/08/29 05:02:58;;;;;;;2.27;2.07;;;12.50;99.90;;;;;;8326005;28;20208;-65
2023/08/29 05:06:58;;;;;;;3.00;2.20;;;12.50;99.90;;;;;;8311644;28;20291;-62
2023/08/29 05:10:59;;;;;;;2.67;2.47;;;12.50;99.90;;;;;;8312326;28;20671;-62
2023/08/29 05:15:00;;;;;;;2.43;1.90;;;12.50;99.90;;;;;;8308729;28;20190;-61
2023/08/29 05:19:01;;;;;;;2.90;1.90;;;12.60;99.90;;;;;;8325272;28;20201;-62
2023/08/29 05:23:01;;;;;;;1.70;1.60;;;12.60;99.90;;;;;;8313972;28;20198;-62
2023/08/29 05:27:02;;;;;;;1.83;1.70;;;12.70;99.90;;;;;;8309907;28;20240;-62
2023/08/29 05:31:03;;;;;;;2.03;1.87;;;12.80;99.90;;;;;;8316620;28;20299;-64
2023/08/29 05:35:05;;;;;;;2.10;1.90;;;12.80;99.90;;;;;;8327238;28;20213;-64
2023/08/29 05:39:06;;;;;;;1.90;1.80;;;12.80;99.90;;;;;;8323389;28;20194;-63
2023/08/29 05:43:07;;;;;;;2.33;2.13;;;12.90;99.90;;;;;;8325236;28;20201;-64
2023/08/29 05:47:07;;;;;;;2.57;2.37;;;12.90;99.90;;;;;;8325424;28;20215;-62
2023/08/29 05:51:08;;;;;;;2.07;1.80;;;12.80;99.90;;;;;;8308801;28;20269;-63
2023/08/29 05:55:09;;;;;;;2.63;2.43;;;12.90;99.90;;;;;;8308517;28;20201;-62
2023/08/29 05:59:09;;;;;;;2.40;1.97;;;12.80;99.90;;;;;;8308151;28;20195;-63
2023/08/29 06:03:10;;;;;;;2.77;2.57;;;12.90;99.90;;;;;;8310385;28;20189;-63
2023/08/29 06:07:12;;;;;;;2.73;2.10;;;12.90;99.90;;;;;;8330465;28;20206;-63
2023/08/29 06:11:13;;;;;;;2.57;2.37;;;12.90;99.90;;;;;;8309135;28;20229;-62
2023/08/29 06:15:14;;;;;;;3.00;2.50;;;12.90;99.90;;;;;;8306291;28;20214;-63
2023/08/29 06:19:15;;;;;;;2.90;2.60;;;13.00;99.90;;;;;;8311048;28;20190;-62
2023/08/29 06:23:16;;;;;;;2.90;2.70;;;13.00;99.90;;;;;;8305660;28;20205;-63
2023/08/29 06:27:16;;;;;;;3.87;3.23;;;12.90;99.90;;;;;;8314496;28;20214;-63
2023/08/29 06:31:17;;;;;;;3.30;3.10;;;12.90;99.90;;;;;;8322273;28;20185;-62
2023/08/29 06:35:18;;;;;;;3.87;3.57;;;12.90;99.90;;;;;;8306426;28;20216;-66
2023/08/29 06:39:19;;;;;;;3.53;3.23;;;12.90;99.90;;;;;;8324555;28;20213;-62
2023/08/29 06:43:19;;;;;;;3.73;3.43;;;12.90;99.90;;;;;;8325040;28;20194;-63
2023/08/29 06:47:20;;;;;;;3.77;3.37;;;12.90;99.90;;;;;;8325452;28;20223;-62
2023/08/29 06:51:24;;;;;;;4.63;2.87;;;12.90;99.90;;;;;;8322400;28;20186;-62
2023/08/29 06:55:24;;;;;;;3.43;3.13;;;12.90;99.90;;;;;;8303641;28;20221;-66
2023/08/29 06:59:25;;;;;;;3.10;2.80;;;13.00;99.90;;;;;;8308112;28;20195;-62
2023/08/29 07:03:26;;;;;;;2.73;2.53;;;13.00;99.90;;;;;;8311790;28;20190;-62
2023/08/29 07:07:27;;;;;;;3.10;2.80;;;13.00;99.90;;;;;;8322708;28;20296;-62
2023/08/29 07:11:28;;;;;;;3.77;2.87;;;13.00;99.90;;;;;;8310078;28;20206;-62
2023/08/29 07:15:32;;;;;;;5.70;3.53;;;13.00;99.90;;;;;;8314187;28;20272;-62
2023/08/29 07:19:33;;;;;;;3.93;3.40;;;13.00;99.90;;;;;;8301485;28;20229;-62
2023/08/29 07:23:34;;;;;;;3.13;2.83;;;13.00;99.90;;;;;;8324940;28;20198;-64
2023/08/29 07:27:35;;;;;;;3.67;3.27;;;13.00;99.90;;;;;;8307706;28;20232;-64
2023/08/29 07:31:36;;;;;;;3.77;3.47;;;13.10;99.90;;;;;;8324140;28;20190;-61
2023/08/29 07:35:37;;;;;;;3.67;3.37;;;13.10;99.90;;;;;;8319667;28;20225;-62
2023/08/29 07:39:38;;;;;;;3.97;3.67;;;13.20;99.90;;;;;;8312193;28;20319;-62
2023/08/29 07:43:40;;;;;;;4.00;3.60;;;13.20;99.90;;;;;;8324354;28;20195;-61
2023/08/29 07:47:40;;;;;;;4.73;3.70;;;13.20;99.90;;;;;;8308821;28;20245;-63
2023/08/29 07:51:41;;;;;;;3.23;3.03;;;13.20;99.90;;;;;;8306851;28;20182;-62
2023/08/29 07:55:43;;;;;;;3.40;3.10;;;13.30;99.90;;;;;;8324556;28;20251;-64
2023/08/29 07:59:44;;;;;;;3.70;3.40;;;13.30;99.90;;;;;;8305412;28;20187;-64
2023/08/29 08:03:45;;;;;;;3.67;3.27;;;13.40;99.90;;;;;;8306532;28;20190;-63
2023/08/29 08:07:46;;;;;;;3.03;2.83;;;13.40;99.90;;;;;;8312743;28;20245;-63
2023/08/29 08:11:47;;;;;;;3.07;2.77;;;13.40;99.90;;;;;;8305713;28;20197;-61
2023/08/29 08:15:47;;;;;;;3.20;3.00;;;13.50;99.90;;;;;;8307062;28;20198;-60
2023/08/29 08:19:51;;;;;;;4.73;3.93;;;13.50;99.90;;;;;;8310326;28;20204;-62
2023/08/29 08:23:52;;;;;;;5.37;4.37;;;13.50;99.90;;;;;;8321008;28;20195;-62
2023/08/29 08:27:53;;;;;;;3.50;3.20;;;13.70;99.90;;;;;;8305530;28;20217;-62
2023/08/29 08:31:54;;;;;;;2.80;2.60;;;13.70;99.90;;;;;;8306466;28;20193;-62
2023/08/29 08:35:54;;;;;;;3.10;2.80;;;13.80;99.90;;;;;;8323446;28;20240;-62
2023/08/29 08:39:55;;;;;;;2.40;2.20;;;13.80;99.90;;;;;;8304438;28;21146;-64
2023/08/29 08:43:57;;;;;;;2.77;2.57;;;13.90;99.90;;;;;;8320449;28;20189;-63
2023/08/29 08:48:00;;;;;;;2.33;2.13;;;13.90;99.90;;;;;;8320946;28;20236;-63
2023/08/29 08:52:02;;;;;;;3.00;2.60;;;14.00;99.90;;;;;;8303647;28;20182;-63
2023/08/29 08:56:04;;;;;;;1.80;1.70;;;14.10;99.90;;;;;;8323586;28;20189;-64
2023/08/29 09:00:07;;;;;;;1.50;1.40;;;14.00;99.90;;;;;;8320614;28;20217;-62
2023/08/29 09:04:08;;;;;;;2.13;2.03;;;13.90;99.90;;;;;;8319200;28;20197;-63
2023/08/29 09:08:09;;;;;;;2.27;2.00;;;14.00;99.90;;;;;;8320886;28;20270;-65
2023/08/29 09:12:10;;;;;;;2.03;1.83;;;14.00;99.90;;;;;;8305441;28;20201;-63
2023/08/29 09:16:12;;;;;;;1.70;1.60;;;14.10;99.90;;;;;;8322165;28;20208;-63
2023/08/29 09:20:13;;;;;;;1.90;1.80;;;14.10;99.90;;;;;;8318444;28;20183;-66
2023/08/29 09:24:21;;;;;;;2.50;2.30;;;14.10;99.90;;;;;;8319247;28;20224;-64
2023/08/29 09:28:25;;;;;;;2.47;1.97;;;14.30;99.90;;;;;;8309112;28;20233;-66
2023/08/29 09:32:26;;;;;;;2.37;2.17;;;14.30;99.90;;;;;;8326718;28;20402;-64
2023/08/29 09:36:27;;;;;;;2.17;1.97;;;14.30;99.90;;;;;;8329349;28;20273;-61
2023/08/29 09:40:28;;;;;;;1.73;1.53;;;14.50;99.90;;;;;;8324825;28;20274;-62
2023/08/29 09:44:33;;;;;;;2.03;1.83;;;14.60;99.90;;;;;;8308272;28;20197;-61
2023/08/29 09:48:34;;;;;;;1.60;1.50;;;14.80;99.90;;;;;;8306806;28;20190;-61
2023/08/29 09:52:35;;;;;;;1.60;1.50;;;14.90;99.90;;;;;;8326858;28;20186;-63
2023/08/29 09:56:41;;;;;;;1.20;1.10;;;14.90;99.90;;;;;;8325169;28;20216;-64
2023/08/29 10:00:43;;;;;;;1.33;1.20;;;14.80;99.90;;;;;;8314564;28;20245;-63
2023/08/29 10:04:48;;;;;;;1.13;1.03;;;14.80;99.90;;;;;;8323073;28;20192;-64
2023/08/29 10:08:58;;;;;;;1.60;1.10;;;14.80;99.90;;;;;;8308777;28;20192;-62
2023/08/29 10:13:02;;;;;;;1.47;1.17;;;14.70;99.90;;;;;;8324242;28;20202;-62
2023/08/29 10:17:04;;;;;;;1.07;0.97;;;14.60;99.90;;;;;;8315120;28;20214;-61
2023/08/29 10:21:05;;;;;;;0.70;0.63;;;14.60;99.90;;;;;;8329391;28;20225;-62
2023/08/29 10:25:07;;;;;;;0.80;0.80;;;14.50;99.90;;;;;;8312167;28;20228;-62
2023/08/29 10:29:08;;;;;;;0.73;0.67;;;14.60;99.90;;;;;;8309226;28;20182;-60
2023/08/29 10:33:09;;;;;;;1.40;1.00;;;14.80;99.90;;;;;;8324500;28;20190;-62
2023/08/29 10:37:18;;;;;;;1.30;0.90;;;14.80;99.90;;;;;;8308810;28;20263;-62
2023/08/29 10:41:20;;;;;;;1.70;1.20;;;14.70;99.90;;;;;;8313494;28;20194;-63
2023/08/29 10:45:22;;;;;;;0.80;0.80;;;14.70;99.90;;;;;;8315089;28;20237;-65
2023/08/29 10:49:23;;;;;;;1.20;1.10;;;14.70;99.90;;;;;;8324213;28;20189;-64
2023/08/29 10:53:38;;;;;;;2.10;1.40;;;14.70;99.90;;;;;;8308165;28;20205;-64
2023/08/29 10:57:39;;;;;;;1.50;1.30;;;14.60;99.90;;;;;;8320740;28;20505;-63
2023/08/29 11:01:40;;;;;;;1.27;1.13;;;14.60;99.90;;;;;;8327988;28;20178;-65
2023/08/29 11:05:41;;;;;;;3.20;1.90;;;14.60;99.90;;;;;;8309069;28;20594;-64
2023/08/29 11:09:41;;;;;;;1.40;1.30;;;14.70;99.90;;;;;;8318963;28;20197;-64
2023/08/29 11:14:04;;;;;;;2.37;1.67;;;14.80;99.90;;;;;;8307303;28;20275;-65
2023/08/29 11:18:21;;;;;;;2.40;2.20;;;14.80;99.90;;;;;;8307668;28;20218;-66
2023/08/29 11:22:25;;;;;;;2.30;2.10;;;14.90;99.90;;;;;;8311674;28;20199;-64
2023/08/29 11:26:27;;;;;;;2.80;2.00;;;14.80;99.90;;;;;;8324669;28;20210;-64
2023/08/29 11:30:28;;;;;;;1.93;1.50;;;15.00;99.90;;;;;;8319324;28;20290;-64
2023/08/29 11:34:29;;;;;;;2.73;2.27;;;15.20;99.90;;;;;;8308315;28;20178;-65
2023/08/29 11:38:31;;;;;;;3.03;2.73;;;15.10;99.90;;;;;;8308650;28;20194;-65
2023/08/29 11:42:32;;;;;;;2.33;2.13;;;15.20;99.90;;;;;;8307840;28;20181;-64
2023/08/29 11:46:33;;;;;;;2.43;2.23;;;15.10;99.90;;;;;;8306493;28;20256;-64
2023/08/29 11:50:34;;;;;;;2.97;2.17;;;15.00;99.90;;;;;;8306473;28;20323;-63
2023/08/29 11:54:39;;;;;;;2.40;2.20;;;15.00;99.90;;;;;;8305110;28;20240;-61
2023/08/29 11:58:41;;;;;;;3.83;2.30;;;15.10;99.90;;;;;;8320223;28;20182;-63
2023/08/29 12:02:43;;;;;;;2.73;2.50;;;15.10;99.90;;;;;;8307476;28;20186;-65
2023/08/29 12:06:44;;;;;;;2.50;2.30;;;15.30;99.90;;;;;;8309323;28;20611;-64
2023/08/29 12:10:52;;;;;;;2.67;2.20;;;15.50;99.90;;;;;;8318992;28;20202;-63
2023/08/29 12:14:54;;;;;;;2.80;2.20;;;15.50;99.90;;;;;;8318848;28;20182;-65
2023/08/29 12:19:08;;;;;;;2.70;2.00;;;15.70;99.90;;;;;;8304233;28;20275;-63
2023/08/29 12:23:10;;;;;;;4.40;2.50;;;15.60;99.90;;;;;;8319383;28;20198;-65
2023/08/29 12:27:10;;;;;;;3.47;2.23;;;15.70;99.90;;;;;;8302150;28;20221;-65
2023/08/29 12:31:12;;;;;;;1.87;1.77;;;16.00;99.90;;;;;;8305370;28;20308;-63
2023/08/29 12:35:16;;;;;;;3.10;1.83;;;16.30;99.90;;;;;;8306155;28;20190;-61
2023/08/29 12:39:17;;;;;;;2.60;1.80;;;16.40;99.90;;;;;;8304128;28;20285;-61
2023/08/29 12:43:19;;;;;;;2.63;2.00;;;16.30;99.90;;;;;;8319245;28;20374;-63
2023/08/29 12:47:20;;;;;;;2.23;2.00;;;15.90;99.90;;;;;;8312303;28;20213;-62
2023/08/29 12:51:20;;;;;;;2.20;2.00;;;15.60;99.90;;;;;;8317288;28;20208;-64
2023/08/29 12:55:21;;;;;;;3.20;2.73;;;15.20;99.90;;;;;;8320747;28;20194;-66
2023/08/29 12:59:23;;;;;;;4.50;2.77;;;15.10;99.90;;;;;;8321943;28;20280;-63
2023/08/29 13:03:24;;;;;;;2.97;2.50;;;15.10;99.90;;;;;;8308359;28;20190;-64
2023/08/29 13:07:25;;;;;;;3.07;2.80;;;15.00;99.90;;;;;;8316362;28;20293;-63
2023/08/29 13:11:26;;;;;;;5.27;3.13;;;15.00;99.90;;;;;;8327788;28;20201;-65
2023/08/29 13:15:26;;;;;;;3.10;2.80;;;14.90;99.90;;;;;;8312258;28;20197;-64
2023/08/29 13:19:27;;;;;;;2.97;2.67;;;14.80;99.90;;;;;;8328084;28;20178;-60
2023/08/29 13:23:28;;;;;;;3.57;2.80;;;14.90;99.90;;;;;;8324562;28;21090;-62
2023/08/29 13:27:29;;;;;;;2.90;2.70;;;14.90;99.90;;;;;;8325526;28;21652;-63
2023/08/29 13:31:30;;;;;;;3.43;3.07;;;15.00;99.90;;;;;;8327197;28;21467;-61
2023/08/29 13:35:30;;;;;;;2.97;2.77;;;15.10;99.90;;;;;;8310065;28;20478;-60
2023/08/29 13:39:31;;;;;;;3.43;3.13;;;15.20;99.90;;;;;;8327252;28;20183;-65
2023/08/29 13:43:33;;;;;;;3.13;2.83;;;15.20;99.90;;;;;;8310019;28;20288;-62
2023/08/29 13:47:34;;;;;;;4.33;2.90;;;15.20;99.90;;;;;;8309162;28;20217;-61
2023/08/29 13:51:35;;;;;;;2.73;2.53;;;15.30;99.90;;;;;;8305785;28;20190;-61
2023/08/29 13:55:36;;;;;;;2.40;2.20;;;15.30;99.90;;;;;;8309970;28;20269;-61
2023/08/29 13:59:37;;;;;;;2.20;2.00;;;15.30;99.90;;;;;;8309037;28;20276;-63
2023/08/29 14:03:38;;;;;;;1.93;1.83;;;15.40;99.90;;;;;;8313514;28;20178;-63
2023/08/29 14:07:39;;;;;;;2.20;2.00;;;15.50;99.90;;;;;;8305513;28;20214;-65
2023/08/29 14:11:39;;;;;;;2.90;1.87;;;15.60;99.90;;;;;;8311375;28;20201;-62
2023/08/29 14:15:40;;;;;;;3.70;2.60;;;15.60;99.90;;;;;;8306682;28;20190;-63
2023/08/29 14:19:41;;;;;;;3.50;2.10;;;15.70;99.90;;;;;;8326270;28;20181;-62
2023/08/29 14:23:42;;;;;;;2.03;1.93;;;15.70;99.90;;;;;;8326465;28;20229;-66
2023/08/29 14:27:43;;;;;;;2.57;2.13;;;16.00;99.90;;;;;;8325538;28;20257;-62
2023/08/29 14:31:44;;;;;;;3.50;2.30;;;16.20;99.90;;;;;;8326654;28;20257;-62
2023/08/29 14:35:45;;;;;;;2.30;2.10;;;16.30;99.90;;;;;;8323830;28;20186;-61
2023/08/29 14:39:49;;;;;;;2.07;1.80;;;16.10;99.90;;;;;;8323298;28;20235;-61
2023/08/29 14:43:50;;;;;;;3.13;1.90;;;16.00;99.90;;;;;;8326646;28;20194;-61
2023/08/29 14:47:52;;;;;;;3.33;2.00;;;15.80;99.90;;;;;;8326613;28;20208;-62
2023/08/29 14:51:54;;;;;;;2.43;2.10;;;15.50;99.90;;;;;;8308556;28;20186;-61
2023/08/29 14:55:56;;;;;;;2.70;2.00;;;15.40;99.90;;;;;;8316710;28;20227;-63
2023/08/29 15:00:00;;;;;;;2.57;2.20;;;15.40;99.90;;;;;;8324940;28;20283;-62
2023/08/29 15:04:00;;;;;;;3.00;2.07;;;15.60;99.90;;;;;;8302972;28;20185;-62
2023/08/29 15:08:03;;;;;;;2.47;2.27;;;15.70;99.90;;;;;;8306220;28;20203;-64
2023/08/29 15:12:05;;;;;;;2.70;2.20;;;15.70;99.90;;;;;;8323023;28;20198;-62
2023/08/29 15:16:06;;;;;;;2.93;2.10;;;15.70;99.90;;;;;;8321839;28;20301;-63
2023/08/29 15:20:09;;;;;;;2.30;2.00;;;15.60;99.90;;;;;;8309893;28;20190;-62
2023/08/29 15:24:10;;;;;;;1.80;1.70;;;15.50;99.90;;;;;;8321157;28;20194;-62
2023/08/29 15:28:11;;;;;;;1.87;1.73;;;15.50;99.90;;;;;;8308659;28;20216;-63
2023/08/29 15:32:12;;;;;;;2.13;1.73;;;15.40;99.90;;;;;;8312540;28;20216;-61
2023/08/29 15:36:13;;;;;;;2.00;1.70;;;15.50;99.90;;;;;;8318057;28;20218;-61
2023/08/29 15:40:14;;;;;;;3.03;1.73;;;15.50;99.90;;;;;;8308828;28;20191;-61
2023/08/29 15:44:16;;;;;;;3.60;1.90;;;15.50;99.90;;;;;;8311190;28;20189;-60
2023/08/29 15:48:17;;;;;;;2.53;1.90;;;15.50;99.90;;;;;;8308628;28;20216;-61
2023/08/29 15:52:18;;;;;;;2.23;2.03;;;15.40;99.90;;;;;;8323593;28;20186;-61
2023/08/29 15:56:19;;;;;;;2.07;1.87;;;15.30;99.90;;;;;;8318032;28;20214;-61
2023/08/29 16:00:20;;;;;;;3.20;1.87;;;15.30;99.90;;;;;;8324333;28;20190;-61
2023/08/29 16:04:21;;;;;;;1.53;1.43;;;15.30;99.90;;;;;;8322332;28;20197;-61
2023/08/29 16:08:21;;;;;;;3.03;2.03;;;15.30;99.90;;;;;;8308756;28;20446;-63
2023/08/29 16:12:22;;;;;;;1.70;1.60;;;15.30;99.90;;;;;;8306427;28;20276;-64
2023/08/29 16:16:23;;;;;;;1.87;1.77;;;15.20;99.90;;;;;;8306831;28;20185;-62
2023/08/29 16:20:24;;;;;;;2.07;1.33;;;15.10;99.90;;;;;;8318066;28;20276;-61
2023/08/29 16:24:24;;;;;;;2.67;1.53;;;15.10;99.90;;;;;;8325736;28;20612;-62
2023/08/29 16:28:27;;;;;;;1.53;1.43;;;15.10;99.90;;;;;;8304698;28;20261;-61
2023/08/29 16:32:28;;;;;;;1.70;1.60;;;15.10;99.90;;;;;;8328663;28;20187;-64
2023/08/29 16:36:30;;;;;;;2.93;1.80;;;15.10;99.90;;;;;;8323315;28;20192;-63
2023/08/29 16:40:31;;;;;;;1.83;1.53;;;15.10;99.90;;;;;;8332303;28;20209;-60
2023/08/29 16:44:32;;;;;;;1.70;1.60;;;15.10;99.90;;;;;;8319113;28;20178;-63
2023/08/29 16:48:33;;;;;;;3.23;1.70;;;15.10;99.90;;;;;;8319603;28;20209;-63
2023/08/29 16:52:34;;;;;;;1.80;1.30;;;15.10;99.90;;;;;;8330515;28;20289;-64
2023/08/29 16:56:34;;;;;;;3.60;1.90;;;15.10;99.90;;;;;;8323013;28;20186;-62
2023/08/29 17:00:37;;;;;;;5.50;2.53;;;15.00;99.90;;;;;;8319779;28;20186;-60
2023/08/29 17:04:38;;;;;;;3.10;1.60;;;15.00;99.90;;;;;;8326153;28;20252;-63
2023/08/29 17:08:39;;;;;;;3.50;1.80;;;14.90;99.90;;;;;;8322608;28;20206;-65
2023/08/29 17:12:41;;;;;;;1.60;1.50;;;14.80;99.90;;;;;;8316928;28;20217;-63
2023/08/29 17:16:42;;;;;;;2.00;1.83;;;14.80;99.90;;;;;;8317380;28;20185;-62
2023/08/29 17:20:42;;;;;;;2.87;2.30;;;14.70;99.90;;;;;;8324774;28;20193;-61
2023/08/29 17:24:43;;;;;;;2.60;2.30;;;14.70;99.90;;;;;;8322241;28;20198;-63
2023/08/29 17:28:44;;;;;;;2.23;1.60;;;14.70;99.90;;;;;;8331735;28;20292;-60
2023/08/29 17:32:45;;;;;;;2.60;1.27;;;14.70;99.90;;;;;;8319311;28;20282;-62
2023/08/29 17:36:46;;;;;;;1.50;1.40;;;14.70;99.90;;;;;;8328697;28;20213;-62
2023/08/29 17:40:47;;;;;;;1.20;1.10;;;14.70;99.90;;;;;;8328299;28;20196;-61
2023/08/29 17:44:50;;;;;;;0.90;0.80;;;14.60;99.90;;;;;;8316391;28;20196;-61
2023/08/29 17:48:51;;;;;;;0.70;0.60;;;14.60;99.90;;;;;;8332323;28;20281;-63
2023/08/29 17:52:51;;;;;;;1.13;0.80;;;14.60;99.90;;;;;;8311879;28;20185;-63
2023/08/29 17:56:52;;;;;;;1.27;0.90;;;14.60;99.90;;;;;;8309677;28;20190;-64
2023/08/29 18:00:54;;;;;;;2.23;1.10;;;14.60;99.90;;;;;;8327474;28;20186;-64
2023/08/29 18:04:55;;;;;;;0.87;0.80;;;14.70;99.90;;;;;;8310191;28;20209;-65
2023/08/29 18:08:56;;;;;;;0.90;0.90;;;14.60;99.90;;;;;;8311168;28;20213;-64
2023/08/29 18:12:57;;;;;;;1.20;1.10;;;14.60;99.90;;;;;;8310124;28;20182;-65
2023/08/29 18:16:57;;;;;;;3.20;1.10;;;14.60;99.90;;;;;;8327465;28;20433;-66
2023/08/29 18:20:59;;;;;;;2.20;1.20;;;14.50;99.90;;;;;;8306929;28;20222;-65
2023/08/29 18:25:01;;;;;;;2.20;1.30;;;14.50;99.90;;;;;;8325905;28;20317;-66
2023/08/29 18:29:02;;;;;;;2.30;1.13;;;14.50;99.90;;;;;;8310177;28;20293;-69
2023/08/29 18:33:05;;;;;;;1.40;1.30;;;14.40;99.90;;;;;;8314106;28;20221;-66
2023/08/29 18:37:08;;;;;;;1.80;1.40;;;14.40;99.90;;;;;;8327917;28;20182;-65
2023/08/29 18:41:10;;;;;;;1.97;1.40;;;14.40;99.90;;;;;;8325028;28;20221;-68
2023/08/29 18:45:12;;;;;;;2.73;1.80;;;14.40;99.90;;;;;;8309963;28;20198;-65
2023/08/29 18:49:13;;;;;;;2.30;2.10;;;14.40;99.90;;;;;;8311196;28;20265;-65
2023/08/29 18:53:14;;;;;;;3.03;1.70;;;14.40;99.90;;;;;;8307850;28;20206;-65
2023/08/29 18:57:15;;;;;;;2.03;1.80;;;14.40;99.90;;;;;;8324237;28;20195;-66
2023/08/29 19:01:16;;;;;;;2.63;1.53;;;14.40;99.90;;;;;;8311428;28;20300;-65
2023/08/29 19:05:17;;;;;;;2.23;1.50;;;14.40;99.90;;;;;;8327014;28;20701;-63
2023/08/29 19:09:17;;;;;;;2.37;1.40;;;14.40;99.90;;;;;;8322887;28;20202;-61
2023/08/29 19:13:18;;;;;;;2.20;2.00;;;14.40;99.90;;;;;;8305436;28;20232;-61
2023/08/29 19:17:20;;;;;;;2.17;1.67;;;14.40;99.90;;;;;;8323796;28;20196;-63
2023/08/29 19:21:21;;;;;;;2.10;1.90;;;14.50;99.90;;;;;;8309916;28;20196;-62
2023/08/29 19:25:22;;;;;;;2.10;1.90;;;14.40;99.90;;;;;;8306578;28;20321;-65
2023/08/29 19:29:23;;;;;;;2.57;2.37;;;14.40;99.90;;;;;;8318946;28;20189;-61
2023/08/29 19:33:24;;;;;;;3.30;3.00;;;14.40;99.90;;;;;;8306118;28;20193;-64
2023/08/29 19:37:25;;;;;;;2.97;2.70;;;14.40;99.90;;;;;;8321302;28;20442;-62
2023/08/29 19:41:26;;;;;;;4.53;3.27;;;14.40;99.90;;;;;;8320472;28;20255;-62
2023/08/29 19:45:28;;;;;;;4.63;3.73;;;14.40;99.90;;;;;;8322229;28;20214;-62
2023/08/29 19:49:37;;;;;;;3.20;2.90;;;14.30;99.90;;;;;;8307530;28;20236;-65
2023/08/29 19:53:38;;;;;;;4.13;2.50;;;14.30;99.90;;;;;;8310682;28;20182;-63
2023/08/29 19:57:39;;;;;;;3.63;3.33;;;14.30;99.90;;;;;;8325244;28;20197;-64
2023/08/29 20:01:40;;;;;;;3.93;3.60;;;14.30;99.90;;;;;;8312387;28;20190;-62
2023/08/29 20:05:41;;;;;;;4.47;4.07;;;14.20;99.90;;;;;;8320303;28;20213;-65
2023/08/29 20:09:42;;;;;;;5.17;3.63;;;14.20;99.90;;;;;;8309982;28;20206;-61
2023/08/29 20:13:43;;;;;;;6.10;3.87;;;14.20;99.90;;;;;;8321603;28;20220;-65
2023/08/29 20:17:44;;;;;;;4.33;3.83;;;14.20;99.90;;;;;;8308264;28;20249;-66
2023/08/29 20:21:45;;;;;;;4.60;4.20;;;14.10;99.90;;;;;;8305066;28;20511;-67
2023/08/29 20:25:46;;;;;;;4.33;3.93;;;14.10;99.90;;;;;;8304886;28;20301;-66
2023/08/29 20:29:51;;;;;;;7.03;4.27;;;14.10;99.90;;;;;;8320077;28;20190;-66
2023/08/29 20:33:52;;;;;;;6.70;3.97;;;14.10;99.90;;;;;;8311837;28;20182;-66
2023/08/29 20:37:57;;;;;;;7.40;4.80;;;14.10;99.90;;;;;;8318801;28;20186;-65
2023/08/29 20:41:58;;;;;;;5.00;4.50;;;14.10;99.90;;;;;;8322079;28;20225;-67
2023/08/29 20:45:59;;;;;;;8.77;4.80;;;14.00;99.90;;;;;;8323864;28;20209;-69
2023/08/29 20:50:01;;;;;;;6.77;5.20;;;14.00;99.90;;;;;;8307581;28;20222;-67
2023/08/29 20:54:03;;;;;;;5.53;4.73;;;14.00;99.90;;;;;;8321738;28;20662;-67
2023/08/29 20:58:03;;;;;;;4.67;4.27;;;14.00;99.90;;;;;;8318388;28;20191;-67